createdAt,value
2018-04-18T00:00:53.963Z,79.90
2018-04-18T00:03:21.563Z,80.50
2018-04-18T00:05:49.092Z,79.40
2018-04-18T00:08:16.616Z,78.50
2018-04-18T00:10:44.154Z,79.00
2018-04-18T00:13:11.691Z,78.70
2018-04-18T00:15:39.229Z,79.40
2018-04-18T00:18:06.749Z,79.40
2018-04-18T00:20:35.158Z,79.00
2018-04-18T00:23:02.684Z,78.80
2018-04-18T00:25:30.220Z,78.80
2018-04-18T00:27:57.753Z,79.80
2018-04-18T00:30:25.283Z,79.50
2018-04-18T00:32:53.577Z,82.70
2018-04-18T00:35:21.105Z,82.60
2018-04-18T00:37:49.421Z,83.00
2018-04-18T00:40:17.091Z,83.10
2018-04-18T00:42:44.604Z,81.70
2018-04-18T00:45:12.131Z,83.20
2018-04-18T00:47:39.673Z,84.30
2018-04-18T00:50:07.205Z,84.60
2018-04-18T00:52:34.730Z,84.60
2018-04-18T00:55:02.241Z,85.00
2018-04-18T00:57:29.752Z,85.30
2018-04-18T00:59:57.273Z,86.00
2018-04-18T01:02:24.800Z,85.80
2018-04-18T01:04:52.346Z,85.90
2018-04-18T01:07:19.882Z,86.50
2018-04-18T01:09:48.179Z,86.50
2018-04-18T01:12:16.469Z,86.50
2018-04-18T01:14:43.989Z,86.50
2018-04-18T01:17:11.521Z,86.60
2018-04-18T01:19:39.052Z,86.60
2018-04-18T01:22:06.585Z,86.90
2018-04-18T01:24:34.153Z,86.80
2018-04-18T01:27:01.665Z,87.10
2018-04-18T01:29:29.201Z,87.30
2018-04-18T01:31:56.728Z,87.40
2018-04-18T01:34:24.241Z,87.40
2018-04-18T01:36:51.769Z,87.40
2018-04-18T01:39:19.289Z,87.50
2018-04-18T01:41:47.575Z,88.10
2018-04-18T01:44:15.097Z,88.10
2018-04-18T01:46:42.615Z,88.10
2018-04-18T01:49:22.869Z,88.20
2018-04-18T01:51:50.401Z,88.30
2018-04-18T01:54:17.947Z,88.40
2018-04-18T01:56:46.245Z,88.60
2018-04-18T01:59:13.774Z,88.50
2018-04-18T02:01:41.296Z,88.70
2018-04-18T02:04:08.835Z,89.50
2018-04-18T02:06:36.352Z,88.60
2018-04-18T02:09:03.855Z,89.00
2018-04-18T02:11:31.368Z,88.60
2018-04-18T02:13:59.681Z,89.00
2018-04-18T02:16:27.247Z,89.00
2018-04-18T02:18:54.744Z,89.20
2018-04-18T02:21:22.266Z,89.30
2018-04-18T02:23:49.789Z,89.20
2018-04-18T02:26:17.309Z,89.80
2018-04-18T02:28:44.847Z,89.60
2018-04-18T02:31:12.395Z,89.90
2018-04-18T02:33:39.922Z,89.60
2018-04-18T02:36:08.215Z,90.00
2018-04-18T02:38:35.738Z,89.90
2018-04-18T02:41:04.002Z,90.00
2018-04-18T02:43:31.532Z,90.00
2018-04-18T02:45:59.097Z,89.90
2018-04-18T02:48:26.637Z,90.00
2018-04-18T02:50:54.166Z,90.00
2018-04-18T02:53:22.482Z,90.20
2018-04-18T02:55:50.017Z,90.10
2018-04-18T02:58:17.537Z,90.20
2018-04-18T03:00:45.064Z,90.20
2018-04-18T03:03:12.631Z,90.30
2018-04-18T03:05:40.145Z,90.30
2018-04-18T03:08:07.697Z,90.70
2018-04-18T03:10:35.239Z,90.30
2018-04-18T03:13:03.550Z,90.80
2018-04-18T03:15:31.107Z,90.40
2018-04-18T03:17:58.663Z,90.40
2018-04-18T03:20:26.179Z,90.50
2018-04-18T03:22:53.703Z,90.50
2018-04-18T03:25:21.223Z,90.60
2018-04-18T03:27:49.501Z,90.80
2018-04-18T03:30:17.789Z,90.80
2018-04-18T03:32:45.334Z,90.80
2018-04-18T03:35:12.868Z,90.90
2018-04-18T03:37:40.415Z,90.80
2018-04-18T03:40:07.958Z,90.80
2018-04-18T03:42:35.550Z,90.90
2018-04-18T03:45:03.076Z,90.90
2018-04-18T03:47:30.643Z,91.00
2018-04-18T03:49:58.664Z,91.00
2018-04-18T03:52:26.200Z,90.90
2018-04-18T03:54:53.776Z,90.90
2018-04-18T03:57:22.067Z,91.20
2018-04-18T03:59:49.604Z,91.10
2018-04-18T04:02:17.112Z,91.00
2018-04-18T04:04:44.659Z,91.00
2018-04-18T04:07:12.165Z,91.00
2018-04-18T04:09:39.687Z,90.90
2018-04-18T04:12:07.211Z,90.90
2018-04-18T04:14:34.757Z,91.00
2018-04-18T04:17:14.021Z,91.50
2018-04-18T04:19:53.303Z,91.20
2018-04-18T04:22:33.704Z,91.20
2018-04-18T04:25:01.253Z,91.30
2018-04-18T04:27:28.775Z,91.30
2018-04-18T04:29:56.301Z,91.30
2018-04-18T04:32:23.838Z,91.30
2018-04-18T04:34:52.079Z,91.20
2018-04-18T04:37:20.396Z,91.40
2018-04-18T04:39:47.936Z,91.30
2018-04-18T04:42:16.212Z,91.60
2018-04-18T04:44:44.547Z,91.40
2018-04-18T04:47:12.307Z,91.40
2018-04-18T04:49:39.877Z,91.50
2018-04-18T04:52:07.398Z,91.60
2018-04-18T04:54:34.912Z,91.40
2018-04-18T04:57:03.198Z,92.30
2018-04-18T04:59:31.498Z,92.20
2018-04-18T05:01:59.018Z,92.20
2018-04-18T05:04:26.612Z,92.10
2018-04-18T05:06:54.128Z,92.00
2018-04-18T05:09:22.280Z,92.50
2018-04-18T05:11:49.794Z,92.20
2018-04-18T05:14:17.310Z,92.10
2018-04-18T05:16:44.835Z,92.10
2018-04-18T05:19:12.712Z,92.30
2018-04-18T05:21:40.248Z,92.30
2018-04-18T05:24:07.758Z,92.00
2018-04-18T05:26:35.276Z,91.90
2018-04-18T05:29:02.819Z,91.90
2018-04-18T05:31:30.372Z,91.80
2018-04-18T05:33:57.916Z,92.00
2018-04-18T05:36:26.242Z,92.00
2018-04-18T05:38:53.780Z,92.00
2018-04-18T05:41:21.304Z,91.80
2018-04-18T05:43:49.628Z,91.30
2018-04-18T05:46:17.147Z,91.30
2018-04-18T05:48:44.685Z,91.10
2018-04-18T05:51:12.271Z,91.00
2018-04-18T05:53:40.773Z,90.90
2018-04-18T05:56:08.344Z,90.90
2018-04-18T05:58:35.886Z,90.60
2018-04-18T06:01:03.424Z,90.60
2018-04-18T06:03:31.720Z,90.40
2018-04-18T06:05:59.252Z,90.40
2018-04-18T06:08:26.803Z,90.20
2018-04-18T06:10:55.089Z,90.10
2018-04-18T06:13:23.383Z,90.00
2018-04-18T06:15:51.034Z,90.00
2018-04-18T06:18:19.359Z,90.00
2018-04-18T06:20:46.917Z,90.00
2018-04-18T06:23:14.426Z,90.50
2018-04-18T06:25:42.793Z,89.60
2018-04-18T06:28:11.069Z,89.50
2018-04-18T06:30:38.595Z,89.50
2018-04-18T06:33:06.115Z,89.00
2018-04-18T06:35:33.664Z,88.60
2018-04-18T06:38:01.184Z,88.50
2018-04-18T06:40:28.716Z,88.50
2018-04-18T06:42:56.236Z,88.10
2018-04-18T06:45:23.745Z,87.50
2018-04-18T06:47:51.283Z,87.70
2018-04-18T06:50:19.251Z,87.50
2018-04-18T06:52:46.801Z,87.20
2018-04-18T06:55:14.429Z,86.20
2018-04-18T06:57:42.768Z,85.60
2018-04-18T07:00:10.250Z,85.50
2018-04-18T07:02:37.767Z,85.00
2018-04-18T07:05:05.278Z,84.60
2018-04-18T07:07:33.565Z,84.10
2018-04-18T07:10:01.888Z,84.30
2018-04-18T07:12:29.422Z,84.20
2018-04-18T07:14:56.959Z,83.20
2018-04-18T07:17:24.478Z,83.60
2018-04-18T07:19:51.997Z,83.90
2018-04-18T07:22:19.538Z,83.50
2018-04-18T07:24:47.066Z,82.50
2018-04-18T07:27:14.582Z,82.20
2018-04-18T07:29:42.345Z,81.80
2018-04-18T07:32:09.882Z,81.20
2018-04-18T07:34:37.890Z,81.40
2018-04-18T07:37:05.407Z,80.80
2018-04-18T07:39:32.978Z,80.40
2018-04-18T07:42:00.542Z,79.30
2018-04-18T07:44:28.082Z,78.80
2018-04-18T07:46:56.370Z,78.40
2018-04-18T07:49:23.896Z,78.30
2018-04-18T07:51:51.422Z,77.40
2018-04-18T07:54:18.966Z,77.10
2018-04-18T07:56:46.482Z,75.60
2018-04-18T07:59:14.777Z,74.40
2018-04-18T08:01:42.318Z,74.30
2018-04-18T08:04:10.620Z,75.00
2018-04-18T08:06:38.141Z,75.00
2018-04-18T08:09:06.421Z,73.60
2018-04-18T08:11:33.954Z,73.30
2018-04-18T08:14:01.485Z,73.10
2018-04-18T08:16:29.092Z,72.10
2018-04-18T08:18:57.377Z,72.00
2018-04-18T08:21:25.681Z,70.80
2018-04-18T08:23:53.202Z,70.80
2018-04-18T08:26:20.732Z,69.60
2018-04-18T08:28:48.258Z,69.30
2018-04-18T08:31:15.772Z,69.40
2018-04-18T08:33:44.066Z,68.10
2018-04-18T08:36:11.600Z,68.00
2018-04-18T08:38:39.119Z,67.50
2018-04-18T08:41:06.676Z,67.20
2018-04-18T08:43:34.201Z,68.10
2018-04-18T08:46:01.733Z,67.70
2018-04-18T08:48:29.250Z,67.90
2018-04-18T08:50:56.775Z,66.90
2018-04-18T08:53:25.090Z,66.80
2018-04-18T08:55:52.597Z,66.80
2018-04-18T08:58:20.109Z,67.80
2018-04-18T09:00:47.643Z,66.50
2018-04-18T09:03:15.200Z,65.20
2018-04-18T09:05:42.728Z,63.90
2018-04-18T09:08:11.038Z,62.50
2018-04-18T09:10:38.572Z,62.40
2018-04-18T09:13:06.097Z,62.20
2018-04-18T09:15:33.618Z,62.90
2018-04-18T09:18:01.132Z,62.00
2018-04-18T09:20:28.653Z,60.50
2018-04-18T09:22:56.166Z,59.90
2018-04-18T09:25:24.466Z,58.60
2018-04-18T09:27:51.990Z,58.50
2018-04-18T09:30:19.510Z,59.30
2018-04-18T09:32:47.043Z,58.30
2018-04-18T09:35:14.565Z,57.70
2018-04-18T09:37:42.110Z,58.40
2018-04-18T09:40:09.660Z,57.80
2018-04-18T09:42:37.182Z,59.00
2018-04-18T09:45:04.750Z,58.10
2018-04-18T09:47:32.294Z,57.80
2018-04-18T09:49:59.821Z,56.00
2018-04-18T09:52:28.118Z,55.60
2018-04-18T09:54:55.641Z,55.60
2018-04-18T09:57:23.177Z,55.80
2018-04-18T09:59:52.285Z,56.00
2018-04-18T10:05:24.465Z,55.20
2018-04-18T10:07:51.980Z,54.50
2018-04-18T10:10:19.523Z,52.90
2018-04-18T10:12:47.037Z,53.50
2018-04-18T10:15:14.548Z,54.60
2018-04-18T10:17:42.098Z,57.20
2018-04-18T10:20:10.355Z,56.50
2018-04-18T10:22:38.772Z,56.20
2018-04-18T10:25:06.300Z,56.20
2018-04-18T10:27:34.583Z,54.90
2018-04-18T10:30:02.126Z,54.90
2018-04-18T10:32:30.428Z,54.30
2018-04-18T10:34:58.003Z,54.30
2018-04-18T10:37:25.530Z,54.90
2018-04-18T10:39:53.817Z,54.50
2018-04-18T10:42:21.336Z,54.50
2018-04-18T10:44:48.864Z,55.00
2018-04-18T10:47:16.384Z,55.30
2018-04-18T10:49:44.696Z,55.10
2018-04-18T10:52:12.264Z,55.10
2018-04-18T10:54:39.774Z,54.40
2018-04-18T10:57:08.061Z,53.30
2018-04-18T10:59:36.367Z,53.00
2018-04-18T11:02:03.890Z,53.00
2018-04-18T11:04:31.417Z,54.30
2018-04-18T11:06:59.329Z,52.40
2018-04-18T11:09:26.847Z,52.70
2018-04-18T11:11:54.396Z,51.80
2018-04-18T11:14:21.919Z,51.80
2018-04-18T11:16:49.427Z,52.30
2018-04-18T11:19:16.979Z,52.70
2018-04-18T11:21:44.531Z,52.40
2018-04-18T11:24:12.042Z,52.40
2018-04-18T11:26:39.679Z,52.90
2018-04-18T11:29:07.198Z,51.80
2018-04-18T11:31:34.748Z,52.10
2018-04-18T11:34:02.293Z,51.30
2018-04-18T11:36:29.821Z,51.00
2018-04-18T11:38:58.104Z,51.70
2018-04-18T11:41:25.657Z,51.70
2018-04-18T11:43:53.182Z,50.30
2018-04-18T11:46:21.505Z,50.30
2018-04-18T11:48:49.064Z,50.30
2018-04-18T11:51:16.596Z,50.70
2018-04-18T11:53:44.984Z,51.40
2018-04-18T11:56:12.503Z,51.40
2018-04-18T11:58:40.021Z,50.00
2018-04-18T12:01:07.596Z,49.50
2018-04-18T12:03:35.149Z,50.80
2018-04-18T12:06:02.686Z,50.10
2018-04-18T12:08:30.211Z,52.20
2018-04-18T12:10:58.540Z,49.80
2018-04-18T12:13:26.071Z,49.30
2018-04-18T12:15:53.595Z,49.50
2018-04-18T12:18:21.114Z,49.40
2018-04-18T12:20:48.633Z,48.70
2018-04-18T12:23:16.148Z,48.60
2018-04-18T12:25:43.686Z,48.50
2018-04-18T12:28:11.221Z,51.60
2018-04-18T12:30:38.767Z,48.30
2018-04-18T12:33:06.295Z,47.80
2018-04-18T12:35:34.232Z,46.90
2018-04-18T12:38:01.769Z,47.60
2018-04-18T12:40:29.326Z,47.70
2018-04-18T12:42:56.859Z,46.80
2018-04-18T12:45:25.145Z,48.40
2018-04-18T12:47:53.431Z,46.20
2018-04-18T12:50:21.712Z,45.80
2018-04-18T12:52:49.988Z,46.20
2018-04-18T12:55:18.296Z,45.80
2018-04-18T12:57:45.817Z,45.80
2018-04-18T13:00:14.123Z,45.80
2018-04-18T13:02:41.653Z,45.80
2018-04-18T13:05:09.943Z,44.50
2018-04-18T13:07:37.502Z,45.00
2018-04-18T13:10:05.039Z,44.40
2018-04-18T13:12:33.349Z,43.50
2018-04-18T13:15:00.868Z,43.40
2018-04-18T13:17:28.408Z,43.10
2018-04-18T13:19:55.927Z,42.00
2018-04-18T13:22:23.483Z,42.20
2018-04-18T13:24:50.998Z,41.80
2018-04-18T13:27:18.551Z,41.00
2018-04-18T13:29:46.089Z,41.30
2018-04-18T13:32:13.613Z,40.60
2018-04-18T13:34:41.129Z,40.10
2018-04-18T13:37:09.474Z,39.80
2018-04-18T13:39:36.984Z,38.70
2018-04-18T13:42:05.265Z,38.40
2018-04-18T13:44:33.597Z,37.70
2018-04-18T13:47:01.180Z,37.70
2018-04-18T13:49:29.466Z,37.10
2018-04-18T13:51:57.760Z,36.80
2018-04-18T13:54:25.325Z,36.80
2018-04-18T13:56:52.870Z,35.60
2018-04-18T13:59:20.411Z,35.50
2018-04-18T14:01:47.964Z,35.20
2018-04-18T14:04:15.501Z,34.50
2018-04-18T14:06:43.039Z,35.80
2018-04-18T14:09:10.553Z,34.90
2018-04-18T14:11:38.864Z,36.40
2018-04-18T14:14:06.376Z,36.40
2018-04-18T14:16:33.907Z,35.20
2018-04-18T14:19:01.439Z,35.30
2018-04-18T14:21:28.966Z,34.20
2018-04-18T14:23:56.496Z,35.90
2018-04-18T14:26:24.054Z,34.30
2018-04-18T14:28:51.588Z,33.30
2018-04-18T14:31:19.120Z,33.50
2018-04-18T14:33:46.680Z,35.20
2018-04-18T14:36:14.191Z,34.10
2018-04-18T14:38:41.754Z,32.80
2018-04-18T14:41:09.358Z,33.40
2018-04-18T14:43:36.898Z,34.70
2018-04-18T14:46:04.430Z,34.90
2018-04-18T14:48:31.956Z,33.10
2018-04-18T14:50:59.558Z,33.20
2018-04-18T14:53:27.105Z,33.60
2018-04-18T14:55:54.638Z,33.00
2018-04-18T14:58:23.026Z,33.70
2018-04-18T15:00:50.548Z,32.90
2018-04-18T15:03:18.080Z,32.60
2018-04-18T15:05:46.375Z,32.90
2018-04-18T15:08:13.932Z,32.90
2018-04-18T15:10:41.472Z,32.80
2018-04-18T15:13:09.777Z,32.90
2018-04-18T15:15:37.308Z,32.90
2018-04-18T15:18:05.618Z,33.80
2018-04-18T15:20:33.170Z,33.80
2018-04-18T15:23:00.759Z,33.90
2018-04-18T15:25:28.295Z,35.40
2018-04-18T15:27:55.853Z,34.50
2018-04-18T15:30:23.356Z,36.60
2018-04-18T15:32:50.904Z,35.30
2018-04-18T15:35:18.450Z,35.40
2018-04-18T15:37:46.009Z,36.60
2018-04-18T15:40:13.567Z,36.20
2018-04-18T15:42:41.675Z,36.80
2018-04-18T15:45:09.218Z,36.80
2018-04-18T15:47:36.745Z,36.40
2018-04-18T15:50:04.266Z,36.70
2018-04-18T15:52:32.539Z,36.50
2018-04-18T15:55:01.752Z,36.20
2018-04-18T15:57:29.299Z,36.20
2018-04-18T15:59:57.605Z,36.80
2018-04-18T16:02:25.145Z,36.70
2018-04-18T16:04:52.698Z,37.00
2018-04-18T16:07:20.230Z,37.90
2018-04-18T16:09:47.773Z,38.40
2018-04-18T16:12:15.314Z,39.00
2018-04-18T16:14:42.865Z,38.30
2018-04-18T16:17:10.413Z,38.50
2018-04-18T16:19:37.979Z,38.70
2018-04-18T16:22:05.533Z,38.40
2018-04-18T16:24:33.055Z,39.00
2018-04-18T16:27:01.399Z,39.30
2018-04-18T16:29:40.724Z,39.30
2018-04-18T16:32:08.342Z,38.80
2018-04-18T16:34:35.894Z,39.20
2018-04-18T16:37:04.214Z,40.30
2018-04-18T16:39:31.782Z,40.30
2018-04-18T16:41:59.336Z,40.20
2018-04-18T16:44:26.840Z,39.40
2018-04-18T16:46:54.351Z,39.90
2018-04-18T16:49:21.885Z,40.30
2018-04-18T16:51:49.425Z,41.50
2018-04-18T16:54:16.958Z,41.80
2018-04-18T16:56:44.483Z,42.60
2018-04-18T16:59:12.029Z,42.80
2018-04-18T17:01:39.579Z,43.60
2018-04-18T17:04:07.129Z,42.90
2018-04-18T17:06:34.669Z,44.40
2018-04-18T17:09:02.991Z,44.30
2018-04-18T17:11:30.517Z,44.30
2018-04-18T17:13:58.077Z,43.00
2018-04-18T17:16:26.407Z,45.30
2018-04-18T17:18:53.935Z,45.30
2018-04-18T17:21:21.458Z,45.30
2018-04-18T17:23:49.738Z,46.40
2018-04-18T17:26:18.082Z,46.10
2018-04-18T17:28:46.065Z,46.10
2018-04-18T17:31:14.490Z,47.20
2018-04-18T17:33:42.026Z,46.60
2018-04-18T17:36:10.333Z,46.90
2018-04-18T17:38:37.878Z,47.00
2018-04-18T17:41:06.218Z,47.10
2018-04-18T17:43:34.517Z,47.50
2018-04-18T17:46:02.847Z,47.60
2018-04-18T17:48:30.408Z,47.60
2018-04-18T17:50:57.923Z,48.20
2018-04-18T17:53:25.464Z,48.00
2018-04-18T17:55:53.026Z,48.40
2018-04-18T17:58:21.341Z,48.80
2018-04-18T18:00:48.910Z,48.80
2018-04-18T18:03:16.462Z,49.20
2018-04-18T18:05:44.274Z,49.70
2018-04-18T18:08:12.684Z,49.10
2018-04-18T18:10:40.320Z,49.00
2018-04-18T18:13:08.644Z,50.30
2018-04-18T18:15:36.215Z,50.30
2018-04-18T18:18:03.826Z,50.60
2018-04-18T18:20:32.194Z,51.10
2018-04-18T18:22:59.829Z,51.00
2018-04-18T18:25:27.433Z,51.40
2018-04-18T18:27:56.038Z,51.50
2018-04-18T18:30:23.638Z,51.80
2018-04-18T18:32:51.262Z,52.40
2018-04-18T18:35:19.519Z,52.50
2018-04-18T18:37:47.275Z,53.20
2018-04-18T18:40:15.126Z,53.60
2018-04-18T18:42:42.752Z,54.20
2018-04-18T18:45:10.371Z,54.10
2018-04-18T18:47:37.983Z,54.30
2018-04-18T18:50:05.603Z,54.30
2018-04-18T18:52:33.217Z,54.80
2018-04-18T18:55:00.884Z,55.20
2018-04-18T18:57:28.587Z,55.60
2018-04-18T18:59:56.322Z,56.00
2018-04-18T19:02:23.946Z,56.60
2018-04-18T19:04:51.751Z,56.20
2018-04-18T19:07:19.523Z,56.90
2018-04-18T19:09:47.289Z,57.40
2018-04-18T19:12:14.940Z,57.50
2018-04-18T19:14:42.689Z,58.10
2018-04-18T19:17:11.156Z,58.20
2018-04-18T19:19:39.638Z,59.10
2018-04-18T19:22:07.460Z,58.60
2018-04-18T19:24:35.031Z,59.00
2018-04-18T19:27:02.709Z,59.10
2018-04-18T19:29:31.248Z,60.20
2018-04-18T19:31:58.899Z,60.20
2018-04-18T19:34:26.468Z,61.40
2018-04-18T19:36:54.013Z,61.80
2018-04-18T19:39:21.640Z,61.40
2018-04-18T19:41:49.282Z,61.90
2018-04-18T19:44:16.879Z,62.30
2018-04-18T19:46:45.223Z,62.00
2018-04-18T19:49:13.717Z,62.00
2018-04-18T19:51:41.302Z,61.80
2018-04-18T19:54:08.877Z,62.50
2018-04-18T19:56:36.433Z,62.60
2018-04-18T19:59:04.037Z,62.50
2018-04-18T20:01:32.463Z,61.90
2018-04-18T20:04:00.318Z,62.40
2018-04-18T20:06:27.965Z,62.00
2018-04-18T20:08:55.599Z,63.00
2018-04-18T20:11:23.293Z,62.70
2018-04-18T20:13:51.639Z,63.80
2018-04-18T20:16:19.229Z,63.80
2018-04-18T20:18:46.845Z,64.30
2018-04-18T20:21:15.132Z,63.90
2018-04-18T20:23:42.692Z,64.40
2018-04-18T20:26:10.293Z,64.00
2018-04-18T20:28:38.606Z,63.30
2018-04-18T20:31:06.204Z,63.20
2018-04-18T20:33:33.907Z,63.60
2018-04-18T20:36:01.472Z,64.20
2018-04-18T20:38:29.023Z,64.60
2018-04-18T20:40:56.588Z,64.10
2018-04-18T20:43:24.135Z,64.70
2018-04-18T20:45:51.714Z,64.80
2018-04-18T20:48:19.301Z,65.60
2018-04-18T20:50:47.645Z,65.70
2018-04-18T20:53:15.215Z,65.50
2018-04-18T20:55:42.788Z,65.30
2018-04-18T20:58:10.344Z,65.20
2018-04-18T21:00:37.987Z,65.90
2018-04-18T21:03:05.563Z,66.70
2018-04-18T21:05:33.134Z,67.40
2018-04-18T21:08:00.664Z,66.20
2018-04-18T21:10:28.237Z,66.50
2018-04-18T21:12:55.772Z,67.60
2018-04-18T21:15:24.090Z,68.70
2018-04-18T21:17:51.620Z,68.70
2018-04-18T21:20:19.173Z,68.00
2018-04-18T21:22:46.709Z,67.60
2018-04-18T21:25:14.271Z,67.90
2018-04-18T21:27:42.574Z,68.00
2018-04-18T21:30:10.125Z,68.00
2018-04-18T21:32:37.707Z,68.40
2018-04-18T21:35:05.259Z,67.20
2018-04-18T21:37:33.029Z,67.10
2018-04-18T21:40:00.577Z,66.80
2018-04-18T21:42:28.139Z,66.90
2018-04-18T21:44:55.671Z,67.60
2018-04-18T21:47:23.227Z,67.20
2018-04-18T21:49:51.528Z,66.90
2018-04-18T21:52:19.132Z,66.80
2018-04-18T21:54:46.681Z,67.00
2018-04-18T21:57:14.215Z,68.50
2018-04-18T21:59:41.750Z,68.80
2018-04-18T22:02:09.289Z,68.20
2018-04-18T22:04:37.626Z,68.80
2018-04-18T22:07:05.168Z,68.80
2018-04-18T22:09:33.531Z,69.10
2018-04-18T22:12:01.104Z,69.30
2018-04-18T22:14:28.642Z,69.00
2018-04-18T22:16:56.231Z,68.70
2018-04-18T22:19:24.566Z,69.40
2018-04-18T22:21:53.279Z,69.30
2018-04-18T22:24:20.820Z,69.30
2018-04-18T22:26:49.155Z,69.70
2018-04-18T22:29:16.683Z,69.70
2018-04-18T22:31:44.957Z,70.50
2018-04-18T22:34:12.487Z,70.70
2018-04-18T22:36:40.048Z,71.20
2018-04-18T22:39:07.611Z,71.50
2018-04-18T22:41:35.251Z,71.50
2018-04-18T22:44:03.581Z,72.20
2018-04-18T22:46:31.133Z,72.10
2018-04-18T22:48:58.714Z,72.50
2018-04-18T22:51:26.265Z,72.70
2018-04-18T22:53:53.824Z,73.30
2018-04-18T22:56:21.346Z,73.70
2018-04-18T22:58:48.963Z,74.20
2018-04-18T23:01:16.873Z,74.50
2018-04-18T23:03:44.431Z,74.80
2018-04-18T23:06:11.976Z,75.40
2018-04-18T23:08:39.555Z,75.40
2018-04-18T23:11:07.540Z,75.30
2018-04-18T23:13:35.558Z,75.00
2018-04-18T23:16:03.118Z,75.10
2018-04-18T23:18:30.698Z,75.90
2018-04-18T23:20:58.238Z,75.90
2018-04-18T23:23:25.792Z,75.90
2018-04-18T23:25:53.370Z,76.30
2018-04-18T23:28:21.677Z,77.20
2018-04-18T23:30:49.214Z,77.10
2018-04-18T23:33:17.520Z,77.50
2018-04-18T23:35:45.069Z,77.50
2018-04-18T23:38:12.600Z,77.30
2018-04-18T23:40:40.933Z,78.20
2018-04-18T23:43:08.466Z,78.10
2018-04-18T23:45:36.001Z,78.30
2018-04-18T23:48:03.530Z,78.50
2018-04-18T23:50:31.065Z,78.90
2018-04-18T23:52:59.058Z,78.90
2018-04-18T23:55:26.652Z,79.10
2018-04-18T23:57:54.176Z,79.30
